KABE/ABE METAR and TAF weather

Enter ICAO airport designator
Station Type Date Time Source
KABE METAR 2024/05/28 21:51 UTC NOAA

KABE 282151Z 25015G20KT 10SM CLR 25/11 A2976 RMK AO2 SLP076 T02500106


Station Type Date Time Source
KABE Decoded METAR 2024/05/28 21:51 UTC NOAA

LEHIGH VALLEY INTERNATIONAL AIRPORT, PA, United States (KABE) 40-39N 075-27W 114M
May 28, 2024 - 05:51 PM EDT / 2024.05.28 2151 UTC
Wind: from the WSW (250 degrees) at 17 MPH (15 KT) gusting to 23 MPH (20 KT):0
Visibility: 10 mile(s):0
Sky conditions: clear
Temperature: 77.0 F (25.0 C)
Dew Point: 51.1 F (10.6 C)
Relative Humidity: 40%
Pressure (altimeter): 29.76 in. Hg (1007 hPa)
ob: KABE 282151Z 25015G20KT 10SM CLR 25/11 A2976 RMK AO2 SLP076 T02500106
cycle: 22

Station Type Date Time Source
KABE TAF 2024/05/28 18:22 UTC NOAA